Time;durP1;ratioP1;P1;durP2;ratioP2;P2;SDS_P1;SDS_P2;PMS_P1;PMS_P2;Temp;Humidity;BMP_temperature;BMP_pressure;BME280_temperature;BME280_humidity;BME280_pressure;Samples;Min_cycle;Max_cycle;Signal;HPM_P1;HPM_P2
2022/11/03 00:03:15;;;;;;;12.60;8.73;;;;;11.60;99366.00;;;;16560298;28;20306;-80
2022/11/03 00:11:19;;;;;;;10.87;7.90;;;;;10.90;99372.00;;;;16581257;28;20220;-80
2022/11/03 00:19:21;;;;;;;10.17;7.40;;;;;10.70;99373.00;;;;16574760;28;20223;-80
2022/11/03 00:27:25;;;;;;;8.97;7.17;;;;;11.10;99361.00;;;;16576879;28;20243;-80
2022/11/03 00:35:28;;;;;;;23.73;8.30;;;;;11.00;99357.00;;;;16572553;28;20605;-79
2022/11/03 00:43:33;;;;;;;9.43;7.20;;;;;10.90;99342.00;;;;16587009;28;20231;-79
2022/11/03 00:51:35;;;;;;;8.67;7.10;;;;;11.10;99324.00;;;;16591269;28;20692;-78
2022/11/03 00:59:39;;;;;;;9.03;6.70;;;;;11.00;99326.00;;;;16599826;28;20215;-80
2022/11/03 01:07:42;;;;;;;13.33;8.60;;;;;10.70;99304.00;;;;16564019;28;20265;-79
2022/11/03 01:15:45;;;;;;;11.47;8.40;;;;;9.60;99317.00;;;;16569447;28;20224;-80
2022/11/03 01:23:48;;;;;;;13.93;9.30;;;;;10.80;99298.00;;;;16580397;28;20226;-79
2022/11/03 01:31:52;;;;;;;13.67;10.00;;;;;10.90;99274.00;;;;16555456;28;20235;-79
2022/11/03 01:39:55;;;;;;;11.07;8.93;;;;;11.50;99277.00;;;;16553140;28;21032;-80
2022/11/03 01:47:59;;;;;;;9.57;8.67;;;;;11.10;99261.00;;;;16565823;28;20195;-80
2022/11/03 01:56:02;;;;;;;13.60;9.73;;;;;10.70;99264.00;;;;16579299;28;20226;-81
2022/11/03 02:04:10;;;;;;;9.90;8.83;;;;;11.10;99251.00;;;;16578386;28;20719;-79
2022/11/03 02:12:15;;;;;;;8.97;7.80;;;;;11.60;99228.00;;;;16544851;28;20655;-79
2022/11/03 02:20:21;;;;;;;11.37;8.90;;;;;11.30;99227.00;;;;16564039;28;20231;-80
2022/11/03 02:28:27;;;;;;;13.13;8.10;;;;;10.80;99228.00;;;;16557437;28;20204;-80
2022/11/03 02:36:33;;;;;;;11.83;9.93;;;;;10.50;99224.00;;;;16550932;28;20721;-80
2022/11/03 02:44:37;;;;;;;11.27;8.93;;;;;9.50;99221.00;;;;16538729;28;20231;-81
2022/11/03 02:52:42;;;;;;;15.50;10.10;;;;;10.20;99207.00;;;;16562200;28;20214;-80
2022/11/03 03:00:49;;;;;;;15.53;9.23;;;;;11.20;99184.00;;;;16573269;28;20250;-79
2022/11/03 03:08:54;;;;;;;16.07;9.87;;;;;9.90;99176.00;;;;16576163;28;20195;-79
2022/11/03 03:17:01;;;;;;;10.97;9.17;;;;;10.00;99168.00;;;;16586434;28;20227;-79
2022/11/03 03:25:09;;;;;;;8.90;8.00;;;;;9.20;99155.00;;;;16585106;28;20711;-79
2022/11/03 03:33:13;;;;;;;13.13;10.40;;;;;9.30;99150.00;;;;16581732;28;20704;-79
2022/11/03 03:41:20;;;;;;;12.17;9.77;;;;;9.70;99135.00;;;;16587154;28;20232;-80
2022/11/03 03:49:24;;;;;;;14.03;9.13;;;;;10.10;99124.00;;;;16567928;28;20295;-79
2022/11/03 03:57:28;;;;;;;10.57;8.90;;;;;10.80;99108.00;;;;16579880;28;20224;-80
2022/11/03 04:05:32;;;;;;;11.53;7.47;;;;;12.00;99086.00;;;;16568549;28;20268;-81
2022/11/03 04:30:18;;;;;;;10.50;8.63;;;;;9.20;99067.00;;;;16582722;28;20235;-79
2022/11/03 04:38:23;;;;;;;13.20;8.80;;;;;9.20;99062.00;;;;16577476;28;20231;-80
2022/11/03 04:46:28;;;;;;;11.33;10.20;;;;;9.90;99034.00;;;;16570176;28;20286;-80
2022/11/03 04:54:32;;;;;;;12.07;8.70;;;;;9.40;99052.00;;;;16572599;28;20236;-81
2022/11/03 05:02:34;;;;;;;12.53;10.17;;;;;9.90;99028.00;;;;16573649;28;20778;-79
2022/11/03 05:10:38;;;;;;;13.60;10.20;;;;;9.30;99023.00;;;;16568788;28;20216;-80
2022/11/03 05:18:43;;;;;;;11.73;8.33;;;;;10.10;99009.00;;;;16575184;28;20223;-81
2022/11/03 05:26:47;;;;;;;11.20;9.60;;;;;9.80;99006.00;;;;16579636;28;20750;-81
2022/11/03 05:34:51;;;;;;;10.10;9.10;;;;;9.60;98995.00;;;;16599664;28;20223;-79
2022/11/03 05:42:58;;;;;;;11.13;9.93;;;;;8.90;98982.00;;;;16587026;28;20224;-81
2022/11/03 05:51:03;;;;;;;12.23;9.53;;;;;8.90;98980.00;;;;16580482;28;20566;-80
2022/11/03 05:59:10;;;;;;;12.87;9.60;;;;;9.30;98960.00;;;;16569277;28;20220;-79
2022/11/03 06:07:19;;;;;;;11.00;9.90;;;;;9.40;98961.00;;;;16564369;28;20250;-80
2022/11/03 06:15:34;;;;;;;10.20;9.20;;;;;9.20;98954.00;;;;16561128;28;20246;-85
2022/11/03 06:23:37;;;;;;;9.73;8.73;;;;;9.10;98934.00;;;;16543542;28;20226;-84
2022/11/03 06:31:41;;;;;;;10.83;9.20;;;;;8.80;98936.00;;;;16550360;28;20223;-83
2022/11/03 06:39:43;;;;;;;18.63;10.87;;;;;8.80;98923.00;;;;16570499;28;20322;-84
2022/11/03 06:47:47;;;;;;;12.10;9.33;;;;;8.80;98931.00;;;;16567680;28;20195;-84
2022/11/03 06:55:50;;;;;;;12.23;9.27;;;;;8.70;98938.00;;;;16583709;28;20253;-84
2022/11/03 07:04:00;;;;;;;16.27;9.30;;;;;8.80;98931.00;;;;16556074;28;20227;-84
2022/11/03 07:12:03;;;;;;;14.63;10.00;;;;;9.00;98913.00;;;;16548036;28;20314;-84
2022/11/03 07:20:14;;;;;;;8.93;7.57;;;;;9.10;98893.00;;;;16578096;28;20231;-84
2022/11/03 07:28:17;;;;;;;12.10;9.40;;;;;9.10;98888.00;;;;16581689;28;20217;-85
2022/11/03 07:36:22;;;;;;;10.60;9.50;;;;;9.20;98879.00;;;;16568823;28;20600;-85
2022/11/03 07:44:25;;;;;;;17.07;10.47;;;;;9.10;98865.00;;;;16569349;28;20262;-85
2022/11/03 07:52:28;;;;;;;17.50;11.97;;;;;9.00;98853.00;;;;16558158;28;20234;-85
2022/11/03 08:00:31;;;;;;;12.90;10.00;;;;;9.10;98852.00;;;;16576041;28;20238;-85
2022/11/03 08:08:35;;;;;;;11.80;9.10;;;;;9.70;98837.00;;;;16579363;28;20206;-85
2022/11/03 08:16:37;;;;;;;11.60;8.83;;;;;9.70;98816.00;;;;16567083;28;20314;-85
2022/11/03 08:24:41;;;;;;;19.87;10.40;;;;;10.10;98793.00;;;;16586869;28;20226;-85
2022/11/03 08:32:44;;;;;;;10.70;9.63;;;;;10.40;98772.00;;;;16572270;28;20231;-85
2022/11/03 08:40:48;;;;;;;13.50;10.07;;;;;10.80;98765.00;;;;16582510;28;20621;-85
2022/11/03 08:48:50;;;;;;;11.07;9.93;;;;;10.90;98760.00;;;;16566952;28;20226;-85
2022/11/03 08:56:54;;;;;;;10.20;9.23;;;;;11.30;98747.00;;;;16573108;28;20316;-85
2022/11/03 09:04:57;;;;;;;13.60;11.20;;;;;11.50;98743.00;;;;16544670;28;20655;-85
2022/11/03 09:13:00;;;;;;;19.50;11.17;;;;;11.80;98724.00;;;;16581722;28;20231;-85
2022/11/03 09:21:03;;;;;;;18.00;10.90;;;;;12.40;98716.00;;;;16571097;28;20296;-85
2022/11/03 09:29:07;;;;;;;10.53;9.40;;;;;12.60;98709.00;;;;16568958;28;20213;-85
2022/11/03 09:37:09;;;;;;;11.83;9.20;;;;;12.90;98700.00;;;;16568348;28;20723;-85
2022/11/03 09:45:13;;;;;;;9.43;8.43;;;;;13.20;98699.00;;;;16551789;28;20231;-85
2022/11/03 09:53:16;;;;;;;13.20;8.00;;;;;13.30;98678.00;;;;16575584;28;20288;-85
2022/11/03 10:01:20;;;;;;;13.60;9.07;;;;;13.50;98670.00;;;;16560150;28;20596;-86
2022/11/03 10:09:24;;;;;;;10.77;7.93;;;;;13.40;98661.00;;;;16545579;28;20209;-85
2022/11/03 10:17:30;;;;;;;14.70;8.37;;;;;13.70;98649.00;;;;16578962;28;20595;-85
2022/11/03 10:25:37;;;;;;;12.90;9.50;;;;;13.90;98630.00;;;;16563673;28;20675;-86
2022/11/03 10:33:50;;;;;;;11.20;8.70;;;;;13.90;98621.00;;;;16557421;28;20493;-86
2022/11/03 10:41:57;;;;;;;12.23;9.10;;;;;14.00;98603.00;;;;16564451;28;20232;-86
2022/11/03 10:50:10;;;;;;;14.40;10.07;;;;;14.10;98595.00;;;;16556247;28;20298;-85
2022/11/03 10:58:13;;;;;;;14.20;8.77;;;;;14.20;98577.00;;;;16555680;28;20229;-85
2022/11/03 11:06:23;;;;;;;10.30;9.23;;;;;14.60;98569.00;;;;16554821;28;20242;-85
2022/11/03 11:14:38;;;;;;;10.67;9.07;;;;;14.40;98559.00;;;;16551652;28;20219;-86
2022/11/03 11:22:41;;;;;;;12.10;9.27;;;;;14.60;98521.00;;;;16567084;28;20239;-86
2022/11/03 11:31:02;;;;;;;16.60;7.87;;;;;14.60;98504.00;;;;16555482;28;20329;-86
2022/11/03 11:39:10;;;;;;;11.00;8.60;;;;;15.10;98499.00;;;;16560729;28;20230;-85
2022/11/03 11:47:23;;;;;;;12.53;7.40;;;;;15.10;98488.00;;;;16556547;28;20220;-85
2022/11/03 11:55:42;;;;;;;8.70;7.37;;;;;15.00;98483.00;;;;16552159;28;20252;-86
2022/11/03 12:03:45;;;;;;;12.77;7.00;;;;;15.30;98461.00;;;;16564323;28;20232;-86
2022/11/03 12:11:51;;;;;;;14.23;8.43;;;;;15.60;98442.00;;;;16568552;28;20309;-86
2022/11/03 12:19:54;;;;;;;9.47;8.47;;;;;15.50;98423.00;;;;16555371;28;20608;-85
2022/11/03 12:27:58;;;;;;;11.07;8.30;;;;;15.50;98405.00;;;;16570332;28;20223;-86
2022/11/03 12:36:00;;;;;;;8.63;7.70;;;;;16.30;98390.00;;;;16582958;28;20718;-86
2022/11/03 12:44:04;;;;;;;13.00;8.43;;;;;16.20;98369.00;;;;16563808;28;20226;-86
2022/11/03 12:52:07;;;;;;;8.50;7.43;;;;;16.00;98362.00;;;;16569741;28;20219;-86
2022/11/03 13:00:13;;;;;;;9.90;8.00;;;;;16.10;98329.00;;;;16580562;28;20673;-86
2022/11/03 13:08:15;;;;;;;10.50;8.10;;;;;15.90;98312.00;;;;16556366;28;20210;-86
2022/11/03 13:16:19;;;;;;;12.00;9.30;;;;;16.40;98294.00;;;;16548763;28;20227;-86
2022/11/03 13:24:22;;;;;;;15.93;9.43;;;;;16.10;98267.00;;;;16558368;28;20224;-85
2022/11/03 13:32:26;;;;;;;18.73;10.70;;;;;17.00;98233.00;;;;16567004;28;20223;-86
2022/11/03 13:40:29;;;;;;;12.00;8.87;;;;;16.90;98222.00;;;;16556363;28;20235;-86
2022/11/03 13:48:33;;;;;;;16.83;10.00;;;;;16.90;98207.00;;;;16539432;28;20869;-86
2022/11/03 13:56:35;;;;;;;13.10;10.07;;;;;16.00;98195.00;;;;16561767;28;20250;-86
2022/11/03 14:04:39;;;;;;;17.80;10.87;;;;;16.20;98180.00;;;;16556110;28;20230;-86
2022/11/03 14:12:41;;;;;;;14.07;12.20;;;;;16.00;98147.00;;;;16552734;28;20221;-86
2022/11/03 14:20:45;;;;;;;12.63;11.10;;;;;15.90;98144.00;;;;16567867;28;20713;-85
2022/11/03 14:28:48;;;;;;;16.30;12.37;;;;;16.00;98133.00;;;;16548822;28;20306;-86
2022/11/03 14:36:51;;;;;;;10.57;9.40;;;;;15.80;98133.00;;;;16550050;28;20314;-86
2022/11/03 14:44:54;;;;;;;20.40;11.33;;;;;15.80;98126.00;;;;16545828;28;20247;-87
2022/11/03 14:52:58;;;;;;;13.50;10.50;;;;;15.90;98113.00;;;;16538511;28;20720;-86
2022/11/03 15:01:01;;;;;;;14.53;10.30;;;;;15.50;98073.00;;;;16542421;28;20317;-86
2022/11/03 15:09:05;;;;;;;14.87;10.77;;;;;15.20;98061.00;;;;16546008;28;20294;-85
2022/11/03 15:17:08;;;;;;;13.80;11.80;;;;;15.60;98044.00;;;;16535874;28;20224;-86
2022/11/03 15:25:12;;;;;;;12.63;9.70;;;;;15.50;98029.00;;;;16543922;28;20231;-85
2022/11/03 15:33:14;;;;;;;10.13;8.60;;;;;15.80;98014.00;;;;16566650;28;20231;-86
2022/11/03 15:41:18;;;;;;;10.00;8.30;;;;;15.80;98005.00;;;;16579061;28;20242;-86
2022/11/03 15:49:21;;;;;;;8.20;7.40;;;;;15.60;97991.00;;;;16591335;28;20238;-86
2022/11/03 15:57:25;;;;;;;9.53;7.87;;;;;15.60;97971.00;;;;16583614;28;20236;-85
2022/11/03 16:05:28;;;;;;;10.13;8.07;;;;;15.00;97955.00;;;;16581833;28;20338;-86
2022/11/03 16:13:31;;;;;;;8.07;6.90;;;;;15.60;97937.00;;;;16576153;28;20255;-86
2022/11/03 16:21:34;;;;;;;8.07;7.10;;;;;15.50;97924.00;;;;16573213;28;20296;-86
2022/11/03 16:29:38;;;;;;;13.10;8.73;;;;;15.20;97908.00;;;;16577144;28;20257;-85
2022/11/03 16:37:40;;;;;;;8.93;8.00;;;;;15.30;97888.00;;;;16575585;28;20269;-85
2022/11/03 16:45:44;;;;;;;11.37;7.80;;;;;15.40;97879.00;;;;16576395;28;20254;-86
2022/11/03 16:53:46;;;;;;;11.30;8.07;;;;;15.30;97870.00;;;;16579026;28;20306;-86
2022/11/03 17:01:50;;;;;;;9.73;8.20;;;;;15.30;97871.00;;;;16594084;28;20227;-86
2022/11/03 17:09:53;;;;;;;16.60;8.70;;;;;15.20;97881.00;;;;16574822;28;20289;-86
2022/11/03 17:17:56;;;;;;;14.83;9.63;;;;;15.20;97886.00;;;;16573208;28;20242;-86
2022/11/03 17:26:00;;;;;;;12.60;8.93;;;;;15.10;97891.00;;;;16567808;28;20314;-86
2022/11/03 17:34:04;;;;;;;13.73;8.07;;;;;15.40;97899.00;;;;16572956;28;20310;-85
2022/11/03 17:42:15;;;;;;;14.37;9.07;;;;;15.50;97896.00;;;;16591552;28;20239;-86
2022/11/03 17:50:20;;;;;;;10.43;8.97;;;;;15.60;97874.00;;;;16571039;28;20223;-86
2022/11/03 17:58:28;;;;;;;8.50;6.70;;;;;15.40;97871.00;;;;16570727;28;20276;-86
2022/11/03 18:06:32;;;;;;;10.07;8.20;;;;;16.00;97850.00;;;;16566996;28;20620;-85
2022/11/03 18:14:34;;;;;;;9.70;8.70;;;;;15.60;97828.00;;;;16538083;28;20247;-85
2022/11/03 18:22:38;;;;;;;11.60;8.30;;;;;15.50;97830.00;;;;16567869;28;20239;-85
2022/11/03 18:30:42;;;;;;;12.60;10.87;;;;;14.80;97817.00;;;;16545855;28;20611;-83
2022/11/03 18:38:47;;;;;;;12.97;9.83;;;;;14.40;97829.00;;;;16563370;28;20215;-84
2022/11/03 18:46:51;;;;;;;8.97;7.93;;;;;14.60;97842.00;;;;16535610;28;20611;-87
2022/11/03 18:54:55;;;;;;;8.57;7.70;;;;;15.30;97814.00;;;;16544488;28;20246;-85
2022/11/03 19:02:57;;;;;;;9.33;8.17;;;;;15.20;97788.00;;;;16564929;28;20232;-84
2022/11/03 19:11:02;;;;;;;9.10;8.20;;;;;15.20;97766.00;;;;16562171;28;20467;-85
2022/11/03 19:19:05;;;;;;;31.00;24.40;;;;;14.30;97788.00;;;;16558488;28;20290;-83
2022/11/03 19:27:12;;;;;;;9.27;8.40;;;;;14.60;97767.00;;;;16554347;28;20321;-82
2022/11/03 19:35:19;;;;;;;11.03;9.97;;;;;14.70;97772.00;;;;16577071;28;20266;-83
2022/11/03 19:43:24;;;;;;;12.43;11.13;;;;;14.80;97766.00;;;;16579482;28;20224;-83
2022/11/03 19:51:28;;;;;;;9.40;8.50;;;;;13.90;97746.00;;;;16579889;28;20309;-83
2022/11/03 19:59:33;;;;;;;9.97;7.90;;;;;13.90;97746.00;;;;16588634;28;20220;-83
2022/11/03 20:07:38;;;;;;;21.43;19.10;;;;;13.90;97733.00;;;;16585771;28;20211;-82
2022/11/03 20:15:42;;;;;;;15.70;9.57;;;;;13.80;97753.00;;;;16578827;28;20330;-83
2022/11/03 20:32:04;;;;;;;11.13;10.13;;;;;14.10;97740.00;;;;16591551;28;20270;-82
2022/11/03 20:40:21;;;;;;;13.73;9.70;;;;;13.60;97727.00;;;;16615619;28;20238;-84
2022/11/03 20:48:26;;;;;;;9.13;8.33;;;;;13.50;97738.00;;;;16605790;28;20214;-82
2022/11/03 20:56:28;;;;;;;12.90;11.60;;;;;13.90;97737.00;;;;16605401;28;20253;-83
2022/11/03 21:04:33;;;;;;;9.87;8.87;;;;;14.60;97746.00;;;;16589839;28;20247;-83
2022/11/03 21:12:36;;;;;;;8.87;7.97;;;;;14.40;97767.00;;;;16574788;28;20231;-84
2022/11/03 21:20:40;;;;;;;10.77;8.63;;;;;14.60;97775.00;;;;16605366;28;20223;-82
2022/11/03 21:28:42;;;;;;;9.20;7.70;;;;;14.60;97762.00;;;;16580082;28;20219;-83
2022/11/03 21:36:46;;;;;;;11.90;9.63;;;;;14.40;97761.00;;;;16573422;28;20243;-83
2022/11/03 21:44:49;;;;;;;10.53;9.43;;;;;14.30;97738.00;;;;16564641;28;20609;-82
2022/11/03 21:52:53;;;;;;;12.13;11.03;;;;;14.20;97748.00;;;;16568900;28;20227;-84
2022/11/03 22:00:55;;;;;;;10.40;8.83;;;;;14.20;97770.00;;;;16576466;28;20265;-83
2022/11/03 22:08:59;;;;;;;9.70;8.80;;;;;14.40;97790.00;;;;16631030;28;20238;-83
2022/11/03 22:17:01;;;;;;;15.83;10.67;;;;;14.60;97805.00;;;;16595169;28;20563;-83
2022/11/03 22:36:22;;;;;;;9.80;8.90;;;;;14.50;97866.00;;;;16525570;28;20270;-82
2022/11/03 22:50:22;;;;;;;7.33;6.63;;;;;14.70;97894.00;;;;16545446;28;20699;-82
2022/11/03 22:58:26;;;;;;;8.53;6.70;;;;;15.10;97895.00;;;;16587248;28;20226;-82
2022/11/03 23:06:30;;;;;;;9.27;7.83;;;;;15.60;97884.00;;;;16591101;28;20250;-82
2022/11/03 23:22:50;;;;;;;8.50;7.70;;;;;15.40;97907.00;;;;16558829;28;20226;-83
2022/11/03 23:30:54;;;;;;;8.10;7.30;;;;;14.50;97923.00;;;;16547544;28;20219;-83
2022/11/03 23:38:58;;;;;;;9.37;8.57;;;;;14.90;97933.00;;;;16561799;28;20231;-83
2022/11/03 23:55:22;;;;;;;9.10;8.20;;;;;15.10;97908.00;;;;16569376;28;20229;-83
